createdAt,value
2018-03-25T00:01:58.102Z,99.90
2018-03-25T00:04:25.579Z,99.90
2018-03-25T00:06:53.020Z,99.90
2018-03-25T00:09:20.529Z,99.90
2018-03-25T00:11:55.041Z,99.90
2018-03-25T00:14:22.489Z,99.90
2018-03-25T00:16:50.169Z,99.90
2018-03-25T00:19:17.948Z,99.90
2018-03-25T00:21:45.424Z,99.90
2018-03-25T00:24:13.057Z,99.90
2018-03-25T00:26:40.600Z,99.90
2018-03-25T00:29:08.069Z,99.90
2018-03-25T00:31:35.545Z,99.90
2018-03-25T00:34:03.001Z,99.90
2018-03-25T00:36:31.380Z,99.90
2018-03-25T00:38:58.877Z,99.90
2018-03-25T00:41:33.957Z,99.90
2018-03-25T00:44:01.912Z,99.90
2018-03-25T00:46:29.372Z,99.90
2018-03-25T00:48:56.849Z,99.90
2018-03-25T00:51:24.312Z,99.90
2018-03-25T00:53:51.757Z,99.90
2018-03-25T00:56:19.529Z,99.90
2018-03-25T00:58:46.992Z,99.90
2018-03-25T01:01:14.466Z,99.90
2018-03-25T01:03:41.924Z,99.90
2018-03-25T01:06:11.106Z,99.90
2018-03-25T01:08:40.244Z,99.90
2018-03-25T01:11:07.705Z,99.90
2018-03-25T01:13:39.224Z,99.90
2018-03-25T01:16:11.585Z,99.90
2018-03-25T01:18:39.059Z,99.90
2018-03-25T01:21:06.508Z,99.90
2018-03-25T01:23:34.146Z,99.90
2018-03-25T01:26:01.588Z,99.90
2018-03-25T01:28:31.911Z,99.90
2018-03-25T01:30:59.378Z,99.90
2018-03-25T01:33:26.852Z,99.90
2018-03-25T01:35:54.352Z,99.90
2018-03-25T01:38:21.813Z,99.90
2018-03-25T01:40:49.836Z,99.90
2018-03-25T01:43:17.446Z,99.90
2018-03-25T01:45:44.900Z,99.90
2018-03-25T01:48:12.398Z,99.90
2018-03-25T01:50:40.637Z,99.90
2018-03-25T01:53:08.937Z,99.90
2018-03-25T01:55:36.585Z,99.90
2018-03-25T01:58:04.029Z,99.90
2018-03-25T02:00:31.516Z,99.90
2018-03-25T02:02:58.991Z,99.90
2018-03-25T02:05:26.439Z,99.90
2018-03-25T02:07:54.677Z,99.90
2018-03-25T02:10:22.124Z,99.90
2018-03-25T02:12:52.913Z,99.90
2018-03-25T02:15:20.352Z,99.90
2018-03-25T02:17:47.824Z,99.90
2018-03-25T02:20:15.274Z,99.90
2018-03-25T02:22:42.759Z,99.90
2018-03-25T02:25:10.221Z,99.90
2018-03-25T02:27:37.669Z,99.90
2018-03-25T02:30:05.405Z,99.90
2018-03-25T02:32:32.898Z,99.90
2018-03-25T02:35:00.349Z,99.90
2018-03-25T02:37:28.570Z,99.90
2018-03-25T02:39:56.115Z,99.90
2018-03-25T02:42:23.552Z,99.90
2018-03-25T02:44:51.005Z,99.90
2018-03-25T02:47:18.491Z,99.90
2018-03-25T02:49:45.989Z,99.90
2018-03-25T02:52:13.451Z,99.90
2018-03-25T02:54:41.201Z,99.90
2018-03-25T02:57:09.569Z,99.90
2018-03-25T02:59:37.030Z,99.90
2018-03-25T03:02:04.508Z,99.90
2018-03-25T03:04:31.962Z,99.90
2018-03-25T03:06:59.446Z,99.90
2018-03-25T03:09:27.112Z,99.90
2018-03-25T03:11:55.348Z,99.90
2018-03-25T03:14:22.941Z,99.90
2018-03-25T03:16:50.405Z,99.90
2018-03-25T03:19:18.019Z,99.90
2018-03-25T03:21:45.530Z,99.90
2018-03-25T03:24:12.930Z,99.90
2018-03-25T03:26:40.404Z,99.90
2018-03-25T03:29:07.860Z,99.90
2018-03-25T03:31:35.345Z,99.90
2018-03-25T03:34:03.573Z,99.90
2018-03-25T03:36:32.285Z,99.90
2018-03-25T03:38:59.943Z,99.90
2018-03-25T03:41:27.385Z,99.90
2018-03-25T03:43:54.865Z,99.90
2018-03-25T03:46:22.333Z,99.90
2018-03-25T03:48:50.510Z,99.90
2018-03-25T03:51:18.006Z,99.90
2018-03-25T03:53:45.461Z,99.90
2018-03-25T03:56:12.928Z,99.90
2018-03-25T03:58:40.444Z,99.90
2018-03-25T04:01:08.664Z,99.90
2018-03-25T04:03:36.152Z,99.90
2018-03-25T04:06:04.552Z,99.90
2018-03-25T04:08:32.221Z,99.90
2018-03-25T04:10:59.726Z,99.90
2018-03-25T04:13:27.205Z,99.90
2018-03-25T04:15:59.295Z,99.90
2018-03-25T04:18:26.774Z,99.90
2018-03-25T04:20:54.347Z,99.90
2018-03-25T04:23:21.791Z,99.90
2018-03-25T04:25:49.241Z,99.90
2018-03-25T04:28:16.721Z,99.90
2018-03-25T04:30:47.969Z,99.90
2018-03-25T04:33:15.425Z,99.90
2018-03-25T04:35:43.425Z,99.90
2018-03-25T04:38:10.911Z,99.90
2018-03-25T04:40:38.388Z,99.90
2018-03-25T04:43:05.824Z,99.90
2018-03-25T04:45:40.450Z,99.90
2018-03-25T04:48:08.460Z,99.90
2018-03-25T04:50:35.921Z,99.90
2018-03-25T04:53:03.441Z,99.90
2018-03-25T04:55:31.096Z,99.90
2018-03-25T04:57:59.309Z,99.90
2018-03-25T05:00:31.312Z,99.90
2018-03-25T05:03:00.305Z,99.90
2018-03-25T05:05:28.528Z,99.90
2018-03-25T05:07:56.001Z,99.90
2018-03-25T05:10:23.473Z,99.90
2018-03-25T05:12:50.929Z,99.90
2018-03-25T05:15:18.419Z,99.90
2018-03-25T05:17:45.894Z,99.90
2018-03-25T05:20:13.352Z,99.90
2018-03-25T05:22:40.814Z,99.90
2018-03-25T05:25:08.342Z,99.90
2018-03-25T05:27:36.472Z,99.90
2018-03-25T05:30:03.934Z,99.90
2018-03-25T05:32:38.865Z,99.90
2018-03-25T05:35:06.326Z,99.90
2018-03-25T05:37:33.893Z,99.90
2018-03-25T05:40:01.906Z,99.90
2018-03-25T05:42:29.361Z,99.90
2018-03-25T05:44:56.850Z,99.90
2018-03-25T05:47:24.288Z,99.90
2018-03-25T05:49:52.498Z,99.90
2018-03-25T05:52:20.905Z,99.90
2018-03-25T05:54:48.362Z,99.90
2018-03-25T05:57:15.895Z,99.90
2018-03-25T05:59:43.415Z,99.90
2018-03-25T06:02:14.580Z,99.90
2018-03-25T06:04:42.085Z,99.90
2018-03-25T06:07:10.332Z,99.90
2018-03-25T06:09:37.849Z,99.90
2018-03-25T06:12:05.313Z,99.90
2018-03-25T06:14:32.795Z,99.90
2018-03-25T06:17:03.676Z,99.90
2018-03-25T06:19:32.632Z,99.90
2018-03-25T06:22:00.115Z,99.90
2018-03-25T06:24:27.556Z,99.90
2018-03-25T06:26:55.023Z,99.90
2018-03-25T06:29:22.465Z,99.90
2018-03-25T06:31:49.934Z,99.90
2018-03-25T06:34:17.374Z,99.90
2018-03-25T06:36:44.876Z,99.90
2018-03-25T06:39:12.422Z,99.90
2018-03-25T06:41:39.943Z,99.90
2018-03-25T06:44:07.937Z,99.90
2018-03-25T06:46:35.412Z,99.90
2018-03-25T06:49:02.865Z,99.90
2018-03-25T06:51:30.354Z,99.90
2018-03-25T06:53:58.821Z,99.90
2018-03-25T06:56:26.591Z,99.90
2018-03-25T06:58:54.090Z,99.90
2018-03-25T07:01:21.934Z,99.90
2018-03-25T07:03:49.379Z,99.90
2018-03-25T07:06:16.853Z,99.90
2018-03-25T07:08:44.301Z,99.90
2018-03-25T07:11:12.033Z,99.90
2018-03-25T07:13:39.492Z,99.90
2018-03-25T07:16:06.928Z,99.90
2018-03-25T07:18:35.574Z,99.90
2018-03-25T07:21:03.049Z,99.90
2018-03-25T07:23:30.555Z,99.90
2018-03-25T07:25:58.054Z,99.90
2018-03-25T07:28:25.653Z,99.90
2018-03-25T07:30:53.238Z,99.90
2018-03-25T07:33:27.759Z,99.90
2018-03-25T07:35:55.617Z,99.90
2018-03-25T07:38:23.079Z,99.90
2018-03-25T07:40:50.541Z,99.90
2018-03-25T07:43:18.072Z,99.90
2018-03-25T07:45:45.521Z,99.90
2018-03-25T07:48:16.489Z,99.90
2018-03-25T07:50:44.867Z,99.90
2018-03-25T07:53:12.548Z,99.90
2018-03-25T07:55:40.040Z,99.90
2018-03-25T07:58:07.537Z,99.90
2018-03-25T08:00:34.993Z,99.90
2018-03-25T08:03:02.554Z,99.90
2018-03-25T08:05:30.044Z,99.90
2018-03-25T08:07:58.385Z,99.90
2018-03-25T08:10:25.838Z,99.90
2018-03-25T08:12:53.289Z,99.90
2018-03-25T08:15:20.837Z,99.90
2018-03-25T08:17:48.309Z,99.90
2018-03-25T08:20:15.765Z,99.90
2018-03-25T08:22:43.271Z,99.90
2018-03-25T08:25:10.739Z,99.90
2018-03-25T08:27:38.252Z,99.90
2018-03-25T08:30:05.700Z,99.90
2018-03-25T08:32:33.168Z,99.90
2018-03-25T08:35:01.257Z,99.90
2018-03-25T08:37:29.207Z,99.90
2018-03-25T08:39:56.640Z,99.90
2018-03-25T08:42:24.105Z,99.90
2018-03-25T08:44:51.660Z,99.90
2018-03-25T08:47:19.343Z,99.90
2018-03-25T08:49:49.925Z,99.90
2018-03-25T08:52:17.385Z,99.90
2018-03-25T08:54:44.842Z,99.90
2018-03-25T08:57:12.378Z,99.90
2018-03-25T08:59:39.846Z,99.90
2018-03-25T09:02:07.435Z,99.90
2018-03-25T09:04:45.457Z,99.90
2018-03-25T09:07:12.905Z,99.90
2018-03-25T09:09:40.360Z,99.90
2018-03-25T09:12:07.828Z,99.90
2018-03-25T09:14:35.277Z,99.90
2018-03-25T09:17:02.777Z,99.90
2018-03-25T09:19:30.291Z,99.90
2018-03-25T09:21:57.727Z,99.90
2018-03-25T09:24:25.341Z,99.90
2018-03-25T09:26:52.810Z,99.90
2018-03-25T09:29:20.293Z,99.90
2018-03-25T09:31:47.791Z,99.90
2018-03-25T09:34:15.286Z,99.90
2018-03-25T09:36:43.283Z,99.90
2018-03-25T09:39:10.716Z,99.90
2018-03-25T09:41:38.296Z,99.90
2018-03-25T09:44:05.737Z,99.90
2018-03-25T09:46:33.182Z,99.90
2018-03-25T09:49:00.841Z,99.90
2018-03-25T09:51:36.970Z,99.90
2018-03-25T09:54:04.437Z,99.90
2018-03-25T09:56:31.900Z,99.90
2018-03-25T09:58:59.369Z,99.90
2018-03-25T10:01:38.588Z,99.90
2018-03-25T10:04:06.147Z,99.90
2018-03-25T10:06:34.959Z,99.90
2018-03-25T10:09:02.401Z,99.90
2018-03-25T10:11:29.978Z,99.90
2018-03-25T10:13:57.350Z,99.90
2018-03-25T10:16:24.843Z,99.90
2018-03-25T10:18:53.143Z,99.90
2018-03-25T10:21:24.449Z,99.90
2018-03-25T10:23:51.897Z,99.90
2018-03-25T10:26:20.268Z,99.90
2018-03-25T10:28:48.773Z,99.90
2018-03-25T10:31:16.224Z,99.90
2018-03-25T10:33:43.746Z,99.90
2018-03-25T10:36:11.181Z,99.90
2018-03-25T10:38:50.901Z,99.90
2018-03-25T10:41:19.326Z,99.90
2018-03-25T10:43:46.964Z,99.90
2018-03-25T10:46:15.202Z,99.90
2018-03-25T10:48:42.680Z,99.90
2018-03-25T10:51:10.164Z,99.90
2018-03-25T10:53:41.501Z,99.50
2018-03-25T10:56:09.066Z,99.10
2018-03-25T10:58:36.578Z,98.60
2018-03-25T11:01:04.165Z,99.00
2018-03-25T11:03:31.659Z,97.50
2018-03-25T11:05:59.311Z,97.20
2018-03-25T11:08:26.845Z,96.90
2018-03-25T11:10:54.309Z,97.00
2018-03-25T11:13:23.273Z,96.00
2018-03-25T11:15:50.745Z,95.90
2018-03-25T11:18:18.204Z,94.80
2018-03-25T11:20:45.677Z,94.60
2018-03-25T11:23:17.512Z,95.30
2018-03-25T11:25:44.961Z,94.20
2018-03-25T11:28:12.434Z,94.40
2018-03-25T11:30:39.909Z,94.10
2018-03-25T11:33:07.353Z,94.00
2018-03-25T11:35:34.881Z,93.20
2018-03-25T11:38:07.093Z,92.90
2018-03-25T11:40:34.558Z,92.70
2018-03-25T11:43:02.193Z,92.90
2018-03-25T11:45:29.657Z,93.10
2018-03-25T11:47:57.901Z,90.00
2018-03-25T11:50:25.454Z,90.00
2018-03-25T11:52:52.906Z,88.00
2018-03-25T11:55:20.964Z,87.80
2018-03-25T11:57:48.472Z,86.50
2018-03-25T12:00:16.688Z,83.40
2018-03-25T12:02:44.137Z,83.00
2018-03-25T12:05:11.715Z,79.40
2018-03-25T12:07:43.606Z,75.20
2018-03-25T12:10:11.120Z,73.20
2018-03-25T12:12:38.599Z,70.20
2018-03-25T12:15:06.139Z,66.80
2018-03-25T12:17:35.275Z,64.20
2018-03-25T12:20:03.109Z,64.00
2018-03-25T12:22:30.554Z,61.50
2018-03-25T12:24:58.338Z,61.50
2018-03-25T12:27:25.909Z,59.20
2018-03-25T12:29:54.615Z,57.50
2018-03-25T12:32:22.092Z,57.40
2018-03-25T12:34:49.650Z,56.00
2018-03-25T12:37:18.869Z,54.70
2018-03-25T12:39:50.366Z,54.70
2018-03-25T12:42:17.815Z,54.60
2018-03-25T12:44:45.343Z,54.30
2018-03-25T12:47:13.708Z,53.50
2018-03-25T12:49:41.313Z,54.40
2018-03-25T12:52:08.823Z,54.90
2018-03-25T12:54:39.461Z,55.80
2018-03-25T12:57:06.935Z,55.20
2018-03-25T12:59:34.425Z,55.10
2018-03-25T13:02:01.997Z,55.70
2018-03-25T13:04:29.557Z,56.00
2018-03-25T13:06:58.582Z,57.20
2018-03-25T13:09:29.456Z,57.20
2018-03-25T13:11:57.188Z,58.30
2018-03-25T13:14:24.691Z,59.60
2018-03-25T13:16:52.842Z,59.00
2018-03-25T13:19:20.301Z,62.00
2018-03-25T13:21:47.823Z,62.30
2018-03-25T13:24:22.635Z,62.50
2018-03-25T13:26:50.110Z,61.90
2018-03-25T13:29:18.532Z,65.60
2018-03-25T13:31:46.011Z,65.60
2018-03-25T13:34:13.464Z,67.10
2018-03-25T13:36:40.948Z,68.20
2018-03-25T13:39:08.401Z,68.30
2018-03-25T13:41:35.904Z,67.80
2018-03-25T13:44:03.356Z,67.00
2018-03-25T13:46:31.465Z,67.90
2018-03-25T13:48:58.921Z,66.80
2018-03-25T13:51:26.397Z,68.30
2018-03-25T13:53:53.899Z,68.40
2018-03-25T13:56:21.321Z,69.10
2018-03-25T13:58:48.811Z,69.70
2018-03-25T14:01:17.337Z,68.90
2018-03-25T14:03:45.132Z,68.30
2018-03-25T14:06:12.582Z,68.50
2018-03-25T14:08:40.058Z,68.40
2018-03-25T14:11:07.565Z,68.70
2018-03-25T14:13:35.184Z,68.30
2018-03-25T14:16:03.020Z,69.20
2018-03-25T14:18:30.465Z,66.90
2018-03-25T14:20:57.938Z,66.30
2018-03-25T14:23:25.428Z,65.70
2018-03-25T14:25:53.632Z,64.50
2018-03-25T14:28:21.232Z,64.50
2018-03-25T14:30:48.776Z,64.80
2018-03-25T14:33:16.272Z,65.50
2018-03-25T14:35:44.631Z,64.70
2018-03-25T14:38:12.664Z,64.70
2018-03-25T14:40:40.252Z,65.40
2018-03-25T14:43:07.721Z,64.10
2018-03-25T14:45:35.828Z,63.30
2018-03-25T14:48:03.341Z,63.50
2018-03-25T14:50:31.791Z,63.10
2018-03-25T14:52:59.238Z,61.70
2018-03-25T14:55:30.703Z,61.90
2018-03-25T14:57:58.088Z,61.60
2018-03-25T15:00:25.567Z,61.40
2018-03-25T15:02:53.019Z,62.40
2018-03-25T15:05:22.173Z,63.60
2018-03-25T15:07:49.621Z,63.60
2018-03-25T15:10:17.105Z,63.50
2018-03-25T15:12:44.555Z,64.20
2018-03-25T15:15:12.048Z,66.20
2018-03-25T15:17:39.601Z,66.10
2018-03-25T15:20:07.077Z,63.50
2018-03-25T15:22:36.101Z,64.50
2018-03-25T15:25:03.636Z,64.40
2018-03-25T15:27:31.138Z,63.80
2018-03-25T15:30:06.403Z,64.20
2018-03-25T15:32:34.041Z,63.40
2018-03-25T15:35:01.533Z,64.30
2018-03-25T15:37:29.088Z,64.30
2018-03-25T15:39:56.577Z,65.20
2018-03-25T15:42:24.006Z,66.50
2018-03-25T15:44:51.753Z,67.50
2018-03-25T15:47:19.693Z,66.40
2018-03-25T15:49:47.169Z,65.90
2018-03-25T15:52:14.633Z,66.20
2018-03-25T15:54:42.209Z,66.80
2018-03-25T15:57:09.687Z,66.20
2018-03-25T15:59:37.142Z,66.70
2018-03-25T16:02:04.631Z,68.10
2018-03-25T16:04:32.092Z,67.40
2018-03-25T16:06:59.651Z,68.70
2018-03-25T16:09:27.822Z,69.90
2018-03-25T16:11:55.444Z,70.30
2018-03-25T16:14:23.013Z,70.00
2018-03-25T16:16:50.511Z,71.10
2018-03-25T16:19:18.574Z,70.90
2018-03-25T16:21:46.014Z,70.00
2018-03-25T16:24:13.493Z,70.30
2018-03-25T16:26:41.864Z,70.10
2018-03-25T16:29:13.356Z,71.20
2018-03-25T16:31:40.805Z,71.20
2018-03-25T16:34:08.268Z,72.60
2018-03-25T16:36:35.746Z,72.30
2018-03-25T16:39:03.230Z,71.90
2018-03-25T16:41:31.466Z,72.00
2018-03-25T16:43:58.917Z,73.70
2018-03-25T16:46:26.396Z,75.90
2018-03-25T16:48:54.781Z,76.20
2018-03-25T16:51:22.305Z,76.20
2018-03-25T16:53:50.417Z,77.20
2018-03-25T16:56:18.081Z,76.80
2018-03-25T16:58:45.532Z,77.50
2018-03-25T17:01:12.978Z,77.50
2018-03-25T17:03:40.424Z,79.30
2018-03-25T17:06:07.873Z,81.90
2018-03-25T17:08:35.351Z,83.30
2018-03-25T17:11:04.730Z,84.10
2018-03-25T17:13:36.134Z,84.00
2018-03-25T17:16:03.580Z,82.80
2018-03-25T17:18:31.057Z,83.90
2018-03-25T17:21:00.386Z,88.80
2018-03-25T17:23:28.456Z,88.80
2018-03-25T17:25:56.699Z,90.80
2018-03-25T17:28:24.137Z,90.90
2018-03-25T17:30:52.357Z,92.00
2018-03-25T17:33:19.817Z,92.00
2018-03-25T17:35:47.302Z,92.80
2018-03-25T17:38:14.857Z,93.70
2018-03-25T17:40:42.738Z,95.50
2018-03-25T17:43:10.265Z,97.10
2018-03-25T17:45:37.741Z,99.90
2018-03-25T17:48:05.205Z,99.90
2018-03-25T17:50:32.949Z,99.90
2018-03-25T17:53:00.422Z,99.90
2018-03-25T17:55:27.864Z,99.90
2018-03-25T17:57:55.516Z,99.90
2018-03-25T18:00:23.024Z,99.90
2018-03-25T18:02:51.362Z,99.90
2018-03-25T18:05:18.856Z,99.90
2018-03-25T18:07:46.394Z,99.90
2018-03-25T18:10:13.825Z,99.90
2018-03-25T18:12:41.304Z,99.90
2018-03-25T18:15:08.760Z,99.90
2018-03-25T18:17:36.206Z,99.90
2018-03-25T18:20:03.677Z,99.90
2018-03-25T18:22:31.184Z,99.90
2018-03-25T18:24:58.661Z,99.90
2018-03-25T18:27:26.349Z,99.90
2018-03-25T18:29:53.797Z,99.90
2018-03-25T18:32:21.265Z,99.90
2018-03-25T18:34:48.725Z,99.90
2018-03-25T18:37:16.194Z,99.90
2018-03-25T18:39:43.890Z,99.90
2018-03-25T18:42:11.389Z,99.90
2018-03-25T18:44:44.561Z,99.90
2018-03-25T18:47:12.021Z,99.90
2018-03-25T18:49:39.585Z,99.90
2018-03-25T18:52:07.220Z,99.90
2018-03-25T18:54:35.088Z,99.90
2018-03-25T18:57:03.477Z,99.90
2018-03-25T18:59:33.908Z,99.90
2018-03-25T19:02:01.423Z,99.90
2018-03-25T19:04:28.950Z,99.90
2018-03-25T19:06:56.402Z,99.90
2018-03-25T19:09:23.844Z,99.90
2018-03-25T19:11:52.245Z,99.90
2018-03-25T19:14:19.872Z,99.90
2018-03-25T19:16:47.357Z,99.90
2018-03-25T19:19:14.833Z,99.90
2018-03-25T19:21:42.408Z,99.90
2018-03-25T19:24:09.846Z,99.90
2018-03-25T19:26:37.334Z,99.90
2018-03-25T19:29:05.733Z,99.90
2018-03-25T19:31:33.390Z,99.90
2018-03-25T19:34:01.616Z,99.90
2018-03-25T19:36:31.168Z,99.90
2018-03-25T19:38:58.737Z,99.90
2018-03-25T19:41:26.205Z,99.90
2018-03-25T19:43:53.709Z,99.90
2018-03-25T19:46:21.191Z,99.90
2018-03-25T19:48:50.217Z,99.90
2018-03-25T19:51:17.966Z,99.90
2018-03-25T19:53:45.535Z,99.90
2018-03-25T19:56:12.974Z,99.90
2018-03-25T19:58:40.447Z,99.90
2018-03-25T20:01:08.140Z,99.90
2018-03-25T20:03:35.674Z,99.90
2018-03-25T20:06:03.281Z,99.90
2018-03-25T20:08:31.501Z,99.90
2018-03-25T20:10:58.997Z,99.90
2018-03-25T20:13:26.581Z,99.90
2018-03-25T20:15:58.729Z,99.90
2018-03-25T20:18:26.192Z,99.90
2018-03-25T20:20:53.637Z,99.90
2018-03-25T20:23:21.913Z,99.90
2018-03-25T20:25:49.384Z,99.90
2018-03-25T20:28:17.598Z,99.90
2018-03-25T20:30:45.188Z,99.90
2018-03-25T20:33:12.661Z,99.90
2018-03-25T20:35:40.186Z,99.90
2018-03-25T20:38:07.618Z,99.90
2018-03-25T20:40:35.097Z,99.90
2018-03-25T20:43:02.568Z,99.90
2018-03-25T20:45:30.942Z,99.90
2018-03-25T20:47:58.437Z,99.90
2018-03-25T20:50:25.892Z,99.90
2018-03-25T20:52:53.562Z,99.90
2018-03-25T20:55:21.099Z,99.90
2018-03-25T20:57:48.576Z,99.90
2018-03-25T21:00:16.316Z,99.90
2018-03-25T21:02:44.018Z,99.90
2018-03-25T21:05:11.433Z,99.90
2018-03-25T21:07:39.409Z,99.90
2018-03-25T21:10:07.083Z,99.90
2018-03-25T21:12:36.048Z,99.90
2018-03-25T21:15:03.958Z,99.90
2018-03-25T21:17:39.922Z,99.90
2018-03-25T21:20:07.451Z,99.90
2018-03-25T21:22:35.092Z,99.90
2018-03-25T21:25:02.695Z,99.90
2018-03-25T21:27:30.153Z,99.90
2018-03-25T21:29:57.626Z,99.90
2018-03-25T21:32:32.109Z,99.90
2018-03-25T21:35:00.823Z,99.90
2018-03-25T21:37:29.028Z,99.90
2018-03-25T21:39:56.520Z,99.90
2018-03-25T21:42:24.152Z,99.90
2018-03-25T21:44:51.767Z,99.90
2018-03-25T21:47:20.405Z,99.90
2018-03-25T21:49:47.849Z,99.90
2018-03-25T21:52:15.341Z,99.90
2018-03-25T21:54:44.484Z,99.90
2018-03-25T21:57:12.724Z,99.90
2018-03-25T21:59:40.348Z,99.90
2018-03-25T22:02:07.797Z,99.90
2018-03-25T22:04:35.265Z,99.90
2018-03-25T22:07:03.644Z,99.90
2018-03-25T22:09:31.122Z,99.90
2018-03-25T22:11:58.570Z,99.90
2018-03-25T22:14:26.050Z,99.90
2018-03-25T22:16:53.541Z,99.90
2018-03-25T22:19:31.400Z,99.90
2018-03-25T22:21:59.379Z,99.90
2018-03-25T22:24:26.895Z,99.90
2018-03-25T22:26:54.365Z,99.90
2018-03-25T22:29:21.842Z,99.90
2018-03-25T22:31:49.286Z,99.90
2018-03-25T22:34:20.542Z,99.90
2018-03-25T22:36:49.520Z,99.90
2018-03-25T22:39:17.016Z,99.90
2018-03-25T22:41:44.475Z,99.90
2018-03-25T22:44:11.946Z,99.90
2018-03-25T22:46:39.382Z,99.90
2018-03-25T22:49:12.039Z,99.90
2018-03-25T22:51:39.490Z,99.90
2018-03-25T22:54:07.061Z,99.90
2018-03-25T22:56:34.549Z,99.90
2018-03-25T22:59:03.392Z,99.90
2018-03-25T23:01:30.854Z,99.90
2018-03-25T23:04:01.702Z,99.90
2018-03-25T23:06:29.325Z,99.90
2018-03-25T23:08:57.624Z,99.90
2018-03-25T23:11:25.209Z,99.90
2018-03-25T23:13:52.654Z,99.90
2018-03-25T23:16:20.102Z,99.90
2018-03-25T23:18:51.367Z,99.90
2018-03-25T23:21:18.812Z,99.90
2018-03-25T23:23:46.582Z,99.90
2018-03-25T23:26:15.865Z,99.90
2018-03-25T23:28:43.317Z,99.90
2018-03-25T23:31:11.712Z,99.90
2018-03-25T23:33:39.364Z,99.90
2018-03-25T23:36:10.961Z,99.90
2018-03-25T23:38:38.694Z,99.90
2018-03-25T23:41:06.729Z,99.90
2018-03-25T23:43:34.186Z,99.90
2018-03-25T23:46:01.636Z,99.90
2018-03-25T23:48:29.101Z,99.90
2018-03-25T23:51:00.901Z,99.90
2018-03-25T23:53:28.349Z,99.90
2018-03-25T23:55:56.565Z,99.90
2018-03-25T23:58:24.081Z,99.90
